Stena Germanica — SKPZ — position and weather

sailwx.info

Track history (hours):
 
Tides and Currents Weather Stations Pressure Air Temp Water Temp Dewpoint Dewpoint Depression Visibility Wind Speed Wind Dir Waves Ship Positions

Stena Germanica

Last reported at 2016-Dec-03 09:33 UTC. Time now 2016-Dec-03 09:38 UTC.
Position N 54°51' E 018°42'.

Length 176 m; draft 6.4 m.

Type: Ship (hazmat cat A). MMSI: 265292000.

Date/timePositionNaut miles runAvg speedWind from/ knotsBaromVisibWave heightAir tempDewpointWater temp
2016-Dec-03 09:33N 54°51' E 018°42'1615.7
2016-Dec-03 08:33N 54°38' E 018°56'1414.2
2016-Dec-03 07:33N 54°32' E 018°34'2 2.1
2016-Dec-03 06:33N 54°33' E 018°30'1 1.2
2016-Dec-03 05:33N 54°32' E 018°32'1312.8
2016-Dec-03 04:33N 54°36' E 018°53'1414.4
2016-Dec-03 03:33N 54°50' E 018°47'1514.6
2016-Dec-03 02:33N 55°00' E 018°29'1715.3
2016-Dec-03 01:29N 55°09' E 018°04'10114.5
2016-Dec-02 18:30N 56°04' E 015°34'6 0.7
2016-Dec-02 09:09N 56°10' E 015°38'12416.3
2016-Dec-02 01:34N 54°57' E 018°34'1717.0
2016-Dec-02 00:34N 54°44' E 018°53'1313.4
2016-Dec-01 23:34N 54°32' E 018°44'8 7.5
2016-Dec-01 22:31N 54°33' E 018°30'0 0.5
2016-Dec-01 21:34N 54°33' E 018°31'7 7.3
2016-Dec-01 20:33N 54°32' E 018°44'1312.9
2016-Dec-01 19:33N 54°44' E 018°52'1817.6
2016-Dec-01 18:33N 54°58' E 018°33'12217.4
2016-Dec-01 11:33N 56°08' E 015°36'2 0.9
2016-Dec-01 09:33N 56°10' E 015°38'11515.5
2016-Dec-01 02:07N 55°02' E 018°22'916.3
2016-Dec-01 01:33N 54°56' E 018°35'1616.5
2016-Dec-01 00:33N 54°44' E 018°53'1312.7
2016-Nov-30 23:33N 54°32' E 018°45'9 8.6
2016-Nov-30 22:33N 54°33' E 018°30'0 0.5
2016-Nov-30 21:33N 54°32' E 018°31'1110.7
2016-Nov-30 20:33N 54°34' E 018°49'1414.1
2016-Nov-30 19:33N 54°48' E 018°47'1717.4
2016-Nov-30 18:33N 55°00' E 018°26'11816.8
2016-Nov-30 11:33N 56°10' E 015°38'0 0.2
2016-Nov-30 10:19N 56°10' E 015°38'10014.3
2016-Nov-30 03:21N 55°10' E 018°00'1114.4
2016-Nov-30 02:33N 55°04' E 018°17'1515.3
2016-Nov-30 01:33N 54°54' E 018°37'1716.8
2016-Nov-30 00:33N 54°42' E 018°56'1414.2
2016-Nov-29 23:33N 54°32' E 018°38'5 4.6
2016-Nov-29 22:31N 54°33' E 018°30'0 0.3
2016-Nov-29 21:33N 54°33' E 018°31'1110.7
2016-Nov-29 20:34N 54°33' E 018°49'1414.1
2016-Nov-29 19:33N 54°47' E 018°47'1717.2
2016-Nov-29 18:33N 54°60' E 018°27'11816.9
2016-Nov-29 11:32N 56°08' E 015°35'3 2.5
2016-Nov-29 10:28N 56°10' E 015°38'0 0.0
2016-Nov-29 09:26N 56°10' E 015°38'6 7.0
2016-Nov-29 08:33N 56°04' E 015°34'10816.8
2016-Nov-29 02:06N 55°04' E 018°14'815.0
2016-Nov-29 01:33N 54°60' E 018°26'1514.8
2016-Nov-29 00:33N 54°50' E 018°45'1413.6
2016-Nov-28 23:33N 54°38' E 018°56'1413.7
2016-Nov-28 22:33N 54°32' E 018°35'3 2.7
2016-Nov-28 21:31N 54°33' E 018°30'3 2.6
2016-Nov-28 20:33N 54°32' E 018°35'1111.0
2016-Nov-28 19:33N 54°35' E 018°53'1414.2
2016-Nov-28 18:33N 54°49' E 018°45'1616.1
2016-Nov-28 17:33N 55°00' E 018°25'11616.4
2016-Nov-28 10:30N 56°04' E 015°35'6 6.4
2016-Nov-28 09:32N 56°10' E 015°38'0 0.0
2016-Nov-28 08:32N 56°10' E 015°38'0 0.0
2016-Nov-28 05:09N 56°10' E 015°38'0 0.0
2016-Nov-28 04:33N 56°10' E 015°38'0 0.0
2016-Nov-28 03:33N 56°10' E 015°38'0 0.0
2016-Nov-28 02:33N 56°10' E 015°38'0 0.0
2016-Nov-28 01:33N 56°10' E 015°38'0 0.0
2016-Nov-28 00:33N 56°10' E 015°38'0 0.0
2016-Nov-27 23:33N 56°10' E 015°38'0 0.0
2016-Nov-27 22:33N 56°10' E 015°38'0 0.0
2016-Nov-27 21:33N 56°10' E 015°38'0 0.0
2016-Nov-27 20:33N 56°10' E 015°38'10112.5
2016-Nov-27 12:31N 55°08' E 017°58'1414.2
2016-Nov-27 11:33N 55°01' E 018°20'1414.4
2016-Nov-27 10:33N 54°53' E 018°39'1615.7
2016-Nov-27 09:33N 54°41' E 018°57'1313.5
2016-Nov-27 08:33N 54°32' E 018°40'6 5.6
2016-Nov-27 07:32N 54°33' E 018°30'0 0.0
2016-Nov-27 06:33N 54°33' E 018°30'7 7.2
2016-Nov-27 05:33N 54°32' E 018°43'1212.4
2016-Nov-27 04:33N 54°43' E 018°54'1515.5
2016-Nov-27 03:34N 54°55' E 018°37'12615.7
2016-Nov-26 19:32N 56°07' E 015°35'3 3.3
2016-Nov-26 18:33N 56°10' E 015°38'6 5.8
2016-Nov-26 17:33N 56°05' E 015°34'11115.8
2016-Nov-26 10:32N 55°03' E 018°17'1515.8
2016-Nov-26 09:33N 54°54' E 018°38'1817.6
2016-Nov-26 08:34N 54°40' E 018°57'1514.9
2016-Nov-26 07:33N 54°32' E 018°35'3 2.8
2016-Nov-26 06:32N 54°33' E 018°30'1 1.2
2016-Nov-26 05:33N 54°32' E 018°32'1211.7
2016-Nov-26 04:33N 54°35' E 018°52'1312.6
2016-Nov-26 03:34N 54°47' E 018°48'1515.4
2016-Nov-26 02:34N 54°59' E 018°30'1515.0
2016-Nov-26 01:33N 55°07' E 018°08'1615.0
2016-Nov-26 00:30N 55°15' E 017°45'8914.8
2016-Nov-25 18:28N 56°06' E 015°34'4 0.4
2016-Nov-25 08:04N 56°10' E 015°38'3 5.9
2016-Nov-25 07:33N 56°07' E 015°35'1111.3
2016-Nov-25 06:33N 55°59' E 015°49'8514.1
2016-Nov-25 00:31N 55°12' E 017°54'1414.6
2016-Nov-24 23:33N 55°04' E 018°15'1514.9
2016-Nov-24 22:33N 54°55' E 018°36'1515.2
2016-Nov-24 21:33N 54°44' E 018°53'1312.8
2016-Nov-24 20:33N 54°32' E 018°47'10 9.5
2016-Nov-24 19:31N 54°33' E 018°30'0 0.0
2016-Nov-24 18:34N 54°33' E 018°30'6 5.8
2016-Nov-24 17:33N 54°32' E 018°40'1312.9
2016-Nov-24 16:33N 54°42' E 018°54'1716.9
2016-Nov-24 15:33N 54°55' E 018°36'1716.6
2016-Nov-24 14:33N 55°05' E 018°13'10915.6
2016-Nov-24 07:33N 56°09' E 015°37'2 1.1
2016-Nov-24 05:33N 56°08' E 015°36'6516.0
2016-Nov-24 01:31N 55°29' E 017°08'1616.8
2016-Nov-24 00:33N 55°20' E 017°32'1716.8
2016-Nov-23 23:33N 55°11' E 017°57'1717.0
2016-Nov-23 22:33N 55°02' E 018°21'1717.0
2016-Nov-23 21:33N 54°50' E 018°44'1515.4
2016-Nov-23 20:33N 54°36' E 018°54'1313.1
2016-Nov-23 19:33N 54°32' E 018°33'2 1.6
2016-Nov-23 18:33N 54°33' E 018°30'1 1.2
2016-Nov-23 17:33N 54°32' E 018°32'1211.9
2016-Nov-23 16:33N 54°35' E 018°52'1414.3
2016-Nov-23 15:33N 54°49' E 018°45'1716.8
2016-Nov-23 14:31N 55°01' E 018°24'1617.0
2016-Nov-23 13:33N 55°11' E 018°01'  
Track history (hours):
 
Tides and Currents Weather Stations Pressure Air Temp Water Temp Dewpoint Dewpoint Depression Visibility Wind Speed Wind Dir Waves Ship Positions

Stena Germanica

Last reported at 2016-Dec-03 09:33 UTC. Time now 2016-Dec-03 09:38 UTC.
Position N 54°51' E 018°42'.

Length 176 m; draft 6.4 m.

Type: Ship (hazmat cat A). MMSI: 265292000.

Date/timePositionNaut miles runAvg speedWind from/ knotsBaromVisibWave heightAir tempDewpointWater temp
2016-Dec-03 09:33N 54°51' E 018°42'1615.7
2016-Dec-03 08:33N 54°38' E 018°56'1414.2
2016-Dec-03 07:33N 54°32' E 018°34'2 2.1
2016-Dec-03 06:33N 54°33' E 018°30'1 1.2
2016-Dec-03 05:33N 54°32' E 018°32'1312.8
2016-Dec-03 04:33N 54°36' E 018°53'1414.4
2016-Dec-03 03:33N 54°50' E 018°47'1514.6
2016-Dec-03 02:33N 55°00' E 018°29'1715.3
2016-Dec-03 01:29N 55°09' E 018°04'10114.5
2016-Dec-02 18:30N 56°04' E 015°34'6 0.7
2016-Dec-02 09:09N 56°10' E 015°38'12416.3
2016-Dec-02 01:34N 54°57' E 018°34'1717.0
2016-Dec-02 00:34N 54°44' E 018°53'1313.4
2016-Dec-01 23:34N 54°32' E 018°44'8 7.5
2016-Dec-01 22:31N 54°33' E 018°30'0 0.5
2016-Dec-01 21:34N 54°33' E 018°31'7 7.3
2016-Dec-01 20:33N 54°32' E 018°44'1312.9
2016-Dec-01 19:33N 54°44' E 018°52'1817.6
2016-Dec-01 18:33N 54°58' E 018°33'12217.4
2016-Dec-01 11:33N 56°08' E 015°36'2 0.9
2016-Dec-01 09:33N 56°10' E 015°38'11515.5
2016-Dec-01 02:07N 55°02' E 018°22'916.3
2016-Dec-01 01:33N 54°56' E 018°35'1616.5
2016-Dec-01 00:33N 54°44' E 018°53'1312.7
2016-Nov-30 23:33N 54°32' E 018°45'9 8.6
2016-Nov-30 22:33N 54°33' E 018°30'0 0.5
2016-Nov-30 21:33N 54°32' E 018°31'1110.7
2016-Nov-30 20:33N 54°34' E 018°49'1414.1
2016-Nov-30 19:33N 54°48' E 018°47'1717.4
2016-Nov-30 18:33N 55°00' E 018°26'11816.8
2016-Nov-30 11:33N 56°10' E 015°38'0 0.2
2016-Nov-30 10:19N 56°10' E 015°38'10014.3
2016-Nov-30 03:21N 55°10' E 018°00'1114.4
2016-Nov-30 02:33N 55°04' E 018°17'1515.3
2016-Nov-30 01:33N 54°54' E 018°37'1716.8
2016-Nov-30 00:33N 54°42' E 018°56'1414.2
2016-Nov-29 23:33N 54°32' E 018°38'5 4.6
2016-Nov-29 22:31N 54°33' E 018°30'0 0.3
2016-Nov-29 21:33N 54°33' E 018°31'1110.7
2016-Nov-29 20:34N 54°33' E 018°49'1414.1
2016-Nov-29 19:33N 54°47' E 018°47'1717.2
2016-Nov-29 18:33N 54°60' E 018°27'11816.9
2016-Nov-29 11:32N 56°08' E 015°35'3 2.5
2016-Nov-29 10:28N 56°10' E 015°38'0 0.0
2016-Nov-29 09:26N 56°10' E 015°38'6 7.0
2016-Nov-29 08:33N 56°04' E 015°34'10816.8
2016-Nov-29 02:06N 55°04' E 018°14'815.0
2016-Nov-29 01:33N 54°60' E 018°26'1514.8
2016-Nov-29 00:33N 54°50' E 018°45'1413.6
2016-Nov-28 23:33N 54°38' E 018°56'1413.7
2016-Nov-28 22:33N 54°32' E 018°35'3 2.7
2016-Nov-28 21:31N 54°33' E 018°30'3 2.6
2016-Nov-28 20:33N 54°32' E 018°35'1111.0
2016-Nov-28 19:33N 54°35' E 018°53'1414.2
2016-Nov-28 18:33N 54°49' E 018°45'1616.1
2016-Nov-28 17:33N 55°00' E 018°25'11616.4
2016-Nov-28 10:30N 56°04' E 015°35'6 6.4
2016-Nov-28 09:32N 56°10' E 015°38'0 0.0
2016-Nov-28 08:32N 56°10' E 015°38'0 0.0
2016-Nov-28 05:09N 56°10' E 015°38'0 0.0
2016-Nov-28 04:33N 56°10' E 015°38'0 0.0
2016-Nov-28 03:33N 56°10' E 015°38'0 0.0
2016-Nov-28 02:33N 56°10' E 015°38'0 0.0
2016-Nov-28 01:33N 56°10' E 015°38'0 0.0
2016-Nov-28 00:33N 56°10' E 015°38'0 0.0
2016-Nov-27 23:33N 56°10' E 015°38'0 0.0
2016-Nov-27 22:33N 56°10' E 015°38'0 0.0
2016-Nov-27 21:33N 56°10' E 015°38'0 0.0
2016-Nov-27 20:33N 56°10' E 015°38'10112.5
2016-Nov-27 12:31N 55°08' E 017°58'1414.2
2016-Nov-27 11:33N 55°01' E 018°20'1414.4
2016-Nov-27 10:33N 54°53' E 018°39'1615.7
2016-Nov-27 09:33N 54°41' E 018°57'1313.5
2016-Nov-27 08:33N 54°32' E 018°40'6 5.6
2016-Nov-27 07:32N 54°33' E 018°30'0 0.0
2016-Nov-27 06:33N 54°33' E 018°30'7 7.2
2016-Nov-27 05:33N 54°32' E 018°43'1212.4
2016-Nov-27 04:33N 54°43' E 018°54'1515.5
2016-Nov-27 03:34N 54°55' E 018°37'12615.7
2016-Nov-26 19:32N 56°07' E 015°35'3 3.3
2016-Nov-26 18:33N 56°10' E 015°38'6 5.8
2016-Nov-26 17:33N 56°05' E 015°34'11115.8
2016-Nov-26 10:32N 55°03' E 018°17'1515.8
2016-Nov-26 09:33N 54°54' E 018°38'1817.6
2016-Nov-26 08:34N 54°40' E 018°57'1514.9
2016-Nov-26 07:33N 54°32' E 018°35'3 2.8
2016-Nov-26 06:32N 54°33' E 018°30'1 1.2
2016-Nov-26 05:33N 54°32' E 018°32'1211.7
2016-Nov-26 04:33N 54°35' E 018°52'1312.6
2016-Nov-26 03:34N 54°47' E 018°48'1515.4
2016-Nov-26 02:34N 54°59' E 018°30'1515.0
2016-Nov-26 01:33N 55°07' E 018°08'1615.0
2016-Nov-26 00:30N 55°15' E 017°45'8914.8
2016-Nov-25 18:28N 56°06' E 015°34'4 0.4
2016-Nov-25 08:04N 56°10' E 015°38'3 5.9
2016-Nov-25 07:33N 56°07' E 015°35'1111.3
2016-Nov-25 06:33N 55°59' E 015°49'8514.1
2016-Nov-25 00:31N 55°12' E 017°54'1414.6
2016-Nov-24 23:33N 55°04' E 018°15'1514.9
2016-Nov-24 22:33N 54°55' E 018°36'1515.2
2016-Nov-24 21:33N 54°44' E 018°53'1312.8
2016-Nov-24 20:33N 54°32' E 018°47'10 9.5
2016-Nov-24 19:31N 54°33' E 018°30'0 0.0
2016-Nov-24 18:34N 54°33' E 018°30'6 5.8
2016-Nov-24 17:33N 54°32' E 018°40'1312.9
2016-Nov-24 16:33N 54°42' E 018°54'1716.9
2016-Nov-24 15:33N 54°55' E 018°36'1716.6
2016-Nov-24 14:33N 55°05' E 018°13'10915.6
2016-Nov-24 07:33N 56°09' E 015°37'2 1.1
2016-Nov-24 05:33N 56°08' E 015°36'6516.0
2016-Nov-24 01:31N 55°29' E 017°08'1616.8
2016-Nov-24 00:33N 55°20' E 017°32'1716.8
2016-Nov-23 23:33N 55°11' E 017°57'1717.0
2016-Nov-23 22:33N 55°02' E 018°21'1717.0
2016-Nov-23 21:33N 54°50' E 018°44'1515.4
2016-Nov-23 20:33N 54°36' E 018°54'1313.1
2016-Nov-23 19:33N 54°32' E 018°33'2 1.6
2016-Nov-23 18:33N 54°33' E 018°30'1 1.2
2016-Nov-23 17:33N 54°32' E 018°32'1211.9
2016-Nov-23 16:33N 54°35' E 018°52'1414.3
2016-Nov-23 15:33N 54°49' E 018°45'1716.8
2016-Nov-23 14:31N 55°01' E 018°24'1617.0
2016-Nov-23 13:33N 55°11' E 018°01'  

Dump ship's entire track history